createdAt,value
2017-05-21T00:00:18.427Z,90.80
2017-05-21T00:02:46.663Z,90.70
2017-05-21T00:05:14.891Z,90.50
2017-05-21T00:07:43.115Z,90.50
2017-05-21T00:10:11.354Z,90.20
2017-05-21T00:12:39.577Z,90.50
2017-05-21T00:15:07.796Z,90.40
2017-05-21T00:17:36.064Z,90.40
2017-05-21T00:20:04.296Z,90.30
2017-05-21T00:22:32.528Z,90.20
2017-05-21T00:25:00.746Z,90.10
2017-05-21T00:27:28.961Z,90.30
2017-05-21T00:29:57.184Z,90.60
2017-05-21T00:32:25.408Z,90.60
2017-05-21T00:34:53.627Z,90.40
2017-05-21T00:37:21.844Z,90.30
2017-05-21T00:39:50.073Z,90.50
2017-05-21T00:42:18.287Z,90.80
2017-05-21T00:44:46.522Z,90.60
2017-05-21T00:47:14.758Z,90.40
2017-05-21T00:49:42.988Z,90.30
2017-05-21T00:52:11.222Z,90.40
2017-05-21T00:54:39.432Z,90.30
2017-05-21T00:57:07.660Z,90.10
2017-05-21T00:59:35.879Z,90.20
2017-05-21T01:02:04.123Z,90.40
2017-05-21T01:04:32.354Z,90.90
2017-05-21T01:07:00.586Z,90.90
2017-05-21T01:09:28.821Z,91.30
2017-05-21T01:11:57.041Z,91.30
2017-05-21T01:14:25.276Z,91.30
2017-05-21T01:16:53.499Z,91.20
2017-05-21T01:19:21.734Z,91.00
2017-05-21T01:21:49.968Z,91.00
2017-05-21T01:24:18.185Z,91.30
2017-05-21T01:26:46.421Z,91.10
2017-05-21T01:29:14.648Z,90.90
2017-05-21T01:31:42.872Z,91.10
2017-05-21T01:34:11.111Z,91.30
2017-05-21T01:36:39.339Z,91.20
2017-05-21T01:39:07.574Z,91.40
2017-05-21T01:41:35.802Z,91.50
2017-05-21T01:44:04.019Z,91.30
2017-05-21T01:46:32.241Z,91.30
2017-05-21T01:49:00.458Z,91.30
2017-05-21T01:51:28.695Z,91.60
2017-05-21T01:53:56.932Z,91.30
2017-05-21T01:56:25.168Z,91.10
2017-05-21T01:58:53.397Z,91.40
2017-05-21T02:01:21.639Z,91.40
2017-05-21T02:03:49.089Z,91.40
2017-05-21T02:06:17.323Z,91.10
2017-05-21T02:08:45.535Z,90.90
2017-05-21T02:11:13.765Z,90.80
2017-05-21T02:13:41.995Z,90.70
2017-05-21T02:16:10.238Z,91.00
2017-05-21T02:18:38.447Z,90.90
2017-05-21T02:21:06.686Z,91.00
2017-05-21T02:23:34.900Z,91.20
2017-05-21T02:26:03.142Z,91.20
2017-05-21T02:28:31.358Z,91.20
2017-05-21T02:30:59.598Z,91.10
2017-05-21T02:33:27.815Z,91.10
2017-05-21T02:35:56.035Z,91.30
2017-05-21T02:38:24.252Z,91.30
2017-05-21T02:40:52.477Z,91.40
2017-05-21T02:43:20.699Z,91.50
2017-05-21T02:45:48.916Z,91.70
2017-05-21T02:48:17.155Z,91.70
2017-05-21T02:50:45.371Z,91.60
2017-05-21T02:53:13.606Z,91.60
2017-05-21T02:55:41.818Z,91.50
2017-05-21T02:58:10.038Z,91.60
2017-05-21T03:00:38.256Z,91.70
2017-05-21T03:03:06.476Z,91.90
2017-05-21T03:05:34.716Z,91.70
2017-05-21T03:08:02.959Z,91.60
2017-05-21T03:10:31.194Z,91.50
2017-05-21T03:12:59.408Z,91.50
2017-05-21T03:15:27.652Z,91.50
2017-05-21T03:17:55.884Z,91.50
2017-05-21T03:20:24.096Z,91.30
2017-05-21T03:22:52.324Z,91.20
2017-05-21T03:25:20.547Z,91.40
2017-05-21T03:27:48.782Z,91.20
2017-05-21T03:30:17.037Z,91.00
2017-05-21T03:32:45.256Z,91.10
2017-05-21T03:35:13.510Z,90.90
2017-05-21T03:37:41.734Z,91.40
2017-05-21T03:40:09.970Z,91.10
2017-05-21T03:42:38.187Z,91.10
2017-05-21T03:45:06.428Z,91.30
2017-05-21T03:47:34.648Z,91.50
2017-05-21T03:50:02.863Z,91.50
2017-05-21T03:52:31.080Z,91.40
2017-05-21T03:54:59.303Z,91.60
2017-05-21T03:57:27.527Z,91.50
2017-05-21T03:59:55.767Z,91.40
2017-05-21T04:02:23.999Z,91.20
2017-05-21T04:04:52.234Z,91.20
2017-05-21T04:07:20.460Z,91.30
2017-05-21T04:09:48.690Z,91.10
2017-05-21T04:12:16.926Z,91.30
2017-05-21T04:14:45.140Z,91.50
2017-05-21T04:17:13.377Z,91.50
2017-05-21T04:19:41.594Z,91.80
2017-05-21T04:22:09.804Z,92.00
2017-05-21T04:24:38.028Z,91.90
2017-05-21T04:27:06.248Z,91.50
2017-05-21T04:29:34.466Z,90.90
2017-05-21T04:32:02.687Z,90.60
2017-05-21T04:34:30.927Z,90.40
2017-05-21T04:36:59.160Z,90.60
2017-05-21T04:39:27.394Z,90.60
2017-05-21T04:41:55.611Z,90.80
2017-05-21T04:44:23.824Z,90.70
2017-05-21T04:46:52.047Z,90.80
2017-05-21T04:49:20.288Z,91.00
2017-05-21T04:51:48.522Z,90.90
2017-05-21T04:54:16.754Z,91.00
2017-05-21T04:56:44.990Z,90.90
2017-05-21T04:59:13.210Z,91.10
2017-05-21T05:01:41.447Z,90.80
2017-05-21T05:04:09.679Z,91.00
2017-05-21T05:06:37.894Z,90.80
2017-05-21T05:09:06.126Z,90.80
2017-05-21T05:11:34.353Z,90.80
2017-05-21T05:14:02.563Z,90.40
2017-05-21T05:16:30.796Z,87.00
2017-05-21T05:18:59.031Z,82.50
2017-05-21T05:21:27.270Z,78.60
2017-05-21T05:23:55.499Z,75.40
2017-05-21T05:26:23.754Z,71.70
2017-05-21T05:28:51.968Z,65.70
2017-05-21T05:31:20.199Z,64.20
2017-05-21T05:33:48.436Z,62.40
2017-05-21T05:36:16.657Z,59.90
2017-05-21T05:38:44.899Z,59.50
2017-05-21T05:41:13.131Z,57.30
2017-05-21T05:43:42.482Z,56.20
2017-05-21T05:46:10.709Z,54.20
2017-05-21T05:48:38.959Z,52.20
2017-05-21T05:51:07.172Z,50.60
2017-05-21T05:53:35.411Z,49.00
2017-05-21T05:56:03.638Z,50.00
2017-05-21T05:58:32.071Z,48.10
2017-05-21T06:01:00.303Z,47.40
2017-05-21T06:03:28.557Z,47.50
2017-05-21T06:05:56.772Z,47.00
2017-05-21T06:08:24.988Z,47.50
2017-05-21T06:10:53.208Z,47.00
2017-05-21T06:13:21.475Z,46.70
2017-05-21T06:15:49.715Z,44.90
2017-05-21T06:18:17.935Z,43.10
2017-05-21T06:20:46.168Z,43.10
2017-05-21T06:23:14.385Z,43.10
2017-05-21T06:25:42.618Z,41.80
2017-05-21T06:28:10.864Z,42.30
2017-05-21T06:30:39.105Z,42.10
2017-05-21T06:33:07.321Z,47.10
2017-05-21T06:35:35.550Z,48.40
2017-05-21T06:38:03.772Z,44.20
2017-05-21T06:40:32.003Z,41.50
2017-05-21T06:43:00.243Z,39.30
2017-05-21T06:45:28.483Z,46.40
2017-05-21T06:47:56.736Z,44.30
2017-05-21T06:50:24.949Z,41.80
2017-05-21T06:52:53.187Z,40.10
2017-05-21T06:55:21.403Z,40.00
2017-05-21T06:57:49.628Z,38.00
2017-05-21T07:00:17.844Z,38.10
2017-05-21T07:02:46.073Z,38.50
2017-05-21T07:05:14.296Z,38.20
2017-05-21T07:07:42.532Z,41.40
2017-05-21T07:10:10.791Z,43.90
2017-05-21T07:12:39.021Z,40.90
2017-05-21T07:15:07.240Z,39.10
2017-05-21T07:17:35.465Z,36.10
2017-05-21T07:20:03.692Z,34.90
2017-05-21T07:22:31.168Z,34.80
2017-05-21T07:24:59.403Z,35.60
2017-05-21T07:27:27.615Z,45.50
2017-05-21T07:29:55.831Z,47.30
2017-05-21T07:32:24.079Z,46.50
2017-05-21T07:34:52.311Z,42.70
2017-05-21T07:37:20.543Z,40.50
2017-05-21T07:39:48.779Z,49.00
2017-05-21T07:42:17.010Z,55.70
2017-05-21T07:44:45.241Z,50.10
2017-05-21T07:47:13.455Z,42.90
2017-05-21T07:49:41.684Z,44.40
2017-05-21T07:52:09.901Z,42.80
2017-05-21T07:54:38.149Z,45.60
2017-05-21T07:57:06.393Z,46.00
2017-05-21T07:59:34.626Z,43.20
2017-05-21T08:02:02.850Z,44.60
2017-05-21T08:04:31.072Z,41.70
2017-05-21T08:06:59.312Z,47.90
2017-05-21T08:09:27.556Z,47.20
2017-05-21T08:11:55.786Z,49.00
2017-05-21T08:14:24.011Z,49.30
2017-05-21T08:16:53.060Z,49.30
2017-05-21T08:19:21.277Z,49.70
2017-05-21T08:21:49.524Z,50.60
2017-05-21T08:24:17.736Z,50.90
2017-05-21T08:26:45.960Z,50.20
2017-05-21T08:29:14.189Z,49.80
2017-05-21T08:31:42.413Z,48.60
2017-05-21T08:34:10.631Z,48.40
2017-05-21T08:36:38.855Z,44.60
2017-05-21T08:39:07.079Z,46.00
2017-05-21T08:41:35.314Z,43.00
2017-05-21T08:44:03.564Z,41.70
2017-05-21T08:46:31.821Z,42.30
2017-05-21T08:49:00.061Z,42.00
2017-05-21T08:51:28.303Z,42.40
2017-05-21T08:53:56.528Z,48.30
2017-05-21T08:56:24.762Z,47.90
2017-05-21T08:58:52.989Z,43.70
2017-05-21T09:01:21.204Z,43.90
2017-05-21T09:03:49.442Z,44.00
2017-05-21T09:06:17.655Z,41.30
2017-05-21T09:08:45.897Z,39.90
2017-05-21T09:11:14.129Z,44.50
2017-05-21T09:13:42.348Z,42.20
2017-05-21T09:16:10.591Z,46.70
2017-05-21T09:18:38.815Z,46.30
2017-05-21T09:21:07.052Z,40.80
2017-05-21T09:23:35.486Z,43.30
2017-05-21T09:26:03.747Z,40.80
2017-05-21T09:28:31.999Z,40.20
2017-05-21T09:31:00.245Z,41.80
2017-05-21T09:33:28.459Z,44.40
2017-05-21T09:35:56.695Z,44.80
2017-05-21T09:38:25.429Z,41.40
2017-05-21T09:40:53.694Z,45.70
2017-05-21T09:43:21.914Z,40.80
2017-05-21T09:45:50.140Z,40.50
2017-05-21T09:48:18.702Z,39.10
2017-05-21T09:50:47.040Z,36.40
2017-05-21T09:53:15.263Z,35.10
2017-05-21T09:55:43.507Z,36.90
2017-05-21T09:58:11.730Z,36.60
2017-05-21T10:00:39.987Z,35.70
2017-05-21T10:03:08.199Z,34.80
2017-05-21T10:05:36.497Z,34.80
2017-05-21T10:08:04.732Z,38.70
2017-05-21T10:10:32.972Z,38.20
2017-05-21T10:13:01.196Z,34.50
2017-05-21T10:15:29.413Z,34.30
2017-05-21T10:17:57.635Z,33.90
2017-05-21T10:20:25.859Z,34.20
2017-05-21T10:22:54.080Z,29.50
2017-05-21T10:25:22.299Z,28.90
2017-05-21T10:27:50.521Z,29.10
2017-05-21T10:30:18.927Z,28.60
2017-05-21T10:32:47.839Z,28.20
2017-05-21T10:35:16.071Z,34.60
2017-05-21T10:37:44.293Z,34.30
2017-05-21T10:40:12.516Z,34.00
2017-05-21T10:42:40.735Z,35.50
2017-05-21T10:45:09.065Z,31.70
2017-05-21T10:47:37.285Z,31.60
2017-05-21T10:50:05.518Z,32.40
2017-05-21T10:52:34.127Z,32.50
2017-05-21T10:55:02.345Z,29.30
2017-05-21T10:57:30.573Z,30.00
2017-05-21T10:59:58.845Z,29.00
2017-05-21T11:02:27.058Z,31.80
2017-05-21T11:04:55.317Z,30.50
2017-05-21T11:09:58.316Z,30.00
2017-05-21T11:12:26.551Z,30.00
2017-05-21T11:14:54.783Z,29.20
2017-05-21T11:17:23.023Z,30.00
2017-05-21T11:19:51.235Z,31.90
2017-05-21T11:22:19.464Z,31.40
2017-05-21T11:24:47.691Z,29.90
2017-05-21T11:27:15.984Z,30.00
2017-05-21T11:29:44.206Z,29.80
2017-05-21T11:32:12.446Z,30.20
2017-05-21T11:34:40.692Z,28.90
2017-05-21T11:37:08.916Z,28.70
2017-05-21T11:39:37.147Z,33.70
2017-05-21T11:42:05.387Z,33.60
2017-05-21T11:44:33.617Z,30.40
2017-05-21T11:47:01.851Z,30.50
2017-05-21T11:49:30.132Z,30.60
2017-05-21T11:51:58.334Z,34.80
2017-05-21T11:54:26.556Z,31.50
2017-05-21T11:56:54.780Z,31.60
2017-05-21T11:59:23.012Z,31.10
2017-05-21T12:01:51.232Z,30.60
2017-05-21T12:04:19.455Z,31.60
2017-05-21T12:06:47.699Z,33.20
2017-05-21T12:09:15.922Z,31.40
2017-05-21T12:11:44.154Z,31.00
2017-05-21T12:14:12.389Z,35.00
2017-05-21T12:16:40.603Z,37.90
2017-05-21T12:19:08.846Z,36.10
2017-05-21T12:21:37.451Z,37.30
2017-05-21T12:24:05.713Z,32.50
2017-05-21T12:26:33.934Z,31.80
2017-05-21T12:29:02.168Z,33.00
2017-05-21T12:31:30.388Z,30.50
2017-05-21T12:33:58.607Z,31.00
2017-05-21T12:36:26.832Z,32.10
2017-05-21T12:38:55.065Z,37.60
2017-05-21T12:41:23.280Z,36.40
2017-05-21T12:43:51.518Z,36.50
2017-05-21T12:46:19.761Z,36.10
2017-05-21T12:48:47.978Z,34.00
2017-05-21T12:51:16.427Z,33.00
2017-05-21T12:53:44.744Z,32.80
2017-05-21T12:56:13.023Z,33.70
2017-05-21T12:58:41.287Z,35.30
2017-05-21T13:01:09.539Z,33.60
2017-05-21T13:03:37.751Z,36.40
2017-05-21T13:06:05.976Z,34.40
2017-05-21T13:08:34.196Z,34.10
2017-05-21T13:11:02.420Z,37.20
2017-05-21T13:13:30.651Z,34.80
2017-05-21T13:15:58.868Z,34.70
2017-05-21T13:18:27.100Z,33.40
2017-05-21T13:20:55.388Z,34.10
2017-05-21T13:23:23.720Z,38.10
2017-05-21T13:25:51.965Z,37.20
2017-05-21T13:28:20.219Z,36.30
2017-05-21T13:30:48.440Z,34.50
2017-05-21T13:33:16.651Z,33.90
2017-05-21T13:35:44.876Z,33.70
2017-05-21T13:38:13.120Z,33.80
2017-05-21T13:40:41.350Z,33.90
2017-05-21T13:43:09.563Z,34.60
2017-05-21T13:45:37.793Z,35.00
2017-05-21T13:48:06.004Z,36.20
2017-05-21T13:50:34.229Z,34.20
2017-05-21T13:53:02.457Z,35.40
2017-05-21T13:55:30.687Z,34.00
2017-05-21T13:57:58.907Z,33.30
2017-05-21T14:00:27.123Z,32.90
2017-05-21T14:02:55.347Z,35.20
2017-05-21T14:05:23.566Z,31.80
2017-05-21T14:07:51.843Z,32.20
2017-05-21T14:10:20.059Z,34.70
2017-05-21T14:12:48.280Z,33.00
2017-05-21T14:15:16.673Z,34.90
2017-05-21T14:17:45.029Z,33.30
2017-05-21T14:20:13.323Z,35.10
2017-05-21T14:22:41.701Z,34.10
2017-05-21T14:25:10.039Z,34.40
2017-05-21T14:27:38.481Z,33.90
2017-05-21T14:30:06.732Z,34.90
2017-05-21T14:32:34.952Z,34.60
2017-05-21T14:35:03.183Z,34.50
2017-05-21T14:37:31.397Z,34.00
2017-05-21T14:39:59.619Z,33.30
2017-05-21T14:42:27.838Z,33.90
2017-05-21T14:44:56.064Z,35.00
2017-05-21T14:47:24.280Z,33.20
2017-05-21T14:49:52.512Z,34.20
2017-05-21T14:52:20.726Z,34.50
2017-05-21T14:54:48.964Z,34.80
2017-05-21T14:57:17.183Z,36.20
2017-05-21T14:59:45.399Z,35.80
2017-05-21T15:02:13.632Z,34.20
2017-05-21T15:04:41.851Z,36.60
2017-05-21T15:07:10.072Z,35.60
2017-05-21T15:09:38.288Z,36.40
2017-05-21T15:12:06.507Z,35.10
2017-05-21T15:14:34.786Z,34.60
2017-05-21T15:17:03.107Z,34.40
2017-05-21T15:19:31.488Z,34.70
2017-05-21T15:21:59.765Z,34.70
2017-05-21T15:24:27.985Z,35.80
2017-05-21T15:26:56.199Z,36.50
2017-05-21T15:29:24.420Z,36.40
2017-05-21T15:31:52.722Z,36.10
2017-05-21T15:34:20.948Z,37.30
2017-05-21T15:36:49.168Z,38.60
2017-05-21T15:39:17.412Z,38.00
2017-05-21T15:41:45.621Z,37.80
2017-05-21T15:44:13.850Z,35.90
2017-05-21T15:46:42.064Z,37.70
2017-05-21T15:49:10.307Z,38.10
2017-05-21T15:51:38.531Z,36.40
2017-05-21T15:54:06.757Z,36.80
2017-05-21T15:56:35.032Z,36.80
2017-05-21T15:59:03.234Z,36.50
2017-05-21T16:01:31.469Z,36.60
2017-05-21T16:03:59.687Z,35.30
2017-05-21T16:06:27.913Z,36.20
2017-05-21T16:08:56.361Z,37.30
2017-05-21T16:11:24.804Z,37.90
2017-05-21T16:13:53.019Z,37.60
2017-05-21T16:16:21.251Z,37.90
2017-05-21T16:18:49.471Z,37.30
2017-05-21T16:21:17.707Z,38.60
2017-05-21T16:23:45.927Z,38.20
2017-05-21T16:26:14.143Z,39.10
2017-05-21T16:28:42.364Z,39.60
2017-05-21T16:31:10.580Z,39.60
2017-05-21T16:33:38.807Z,39.70
2017-05-21T16:36:07.025Z,39.80
2017-05-21T16:38:35.252Z,39.70
2017-05-21T16:41:03.472Z,40.70
2017-05-21T16:43:31.707Z,40.30
2017-05-21T16:45:59.923Z,40.00
2017-05-21T16:48:28.168Z,39.60
2017-05-21T16:50:56.391Z,41.00
2017-05-21T16:53:24.609Z,40.10
2017-05-21T16:55:52.830Z,41.20
2017-05-21T16:58:21.050Z,40.90
2017-05-21T17:00:49.271Z,41.00
2017-05-21T17:03:17.487Z,40.70
2017-05-21T17:05:45.715Z,39.80
2017-05-21T17:08:13.936Z,41.20
2017-05-21T17:10:42.165Z,40.60
2017-05-21T17:13:10.377Z,40.80
2017-05-21T17:15:38.605Z,41.50
2017-05-21T17:18:06.823Z,41.80
2017-05-21T17:20:35.067Z,41.40
2017-05-21T17:23:03.284Z,42.00
2017-05-21T17:25:31.497Z,42.00
2017-05-21T17:27:59.721Z,42.30
2017-05-21T17:30:27.938Z,42.40
2017-05-21T17:32:56.165Z,42.20
2017-05-21T17:35:24.384Z,42.10
2017-05-21T17:37:52.613Z,42.60
2017-05-21T17:40:20.830Z,43.00
2017-05-21T17:42:49.064Z,42.70
2017-05-21T17:45:17.281Z,43.30
2017-05-21T17:47:45.532Z,43.70
2017-05-21T17:50:13.752Z,43.40
2017-05-21T17:52:41.999Z,43.60
2017-05-21T17:55:10.216Z,44.30
2017-05-21T17:57:38.443Z,44.20
2017-05-21T18:00:06.676Z,44.50
2017-05-21T18:02:34.890Z,44.30
2017-05-21T18:05:03.127Z,44.40
2017-05-21T18:07:31.367Z,44.10
2017-05-21T18:09:59.583Z,44.10
2017-05-21T18:12:27.799Z,44.50
2017-05-21T18:14:56.020Z,44.80
2017-05-21T18:17:24.230Z,44.80
2017-05-21T18:19:52.852Z,45.10
2017-05-21T18:22:21.860Z,45.40
2017-05-21T18:24:50.139Z,45.80
2017-05-21T18:27:18.447Z,46.30
2017-05-21T18:29:46.927Z,46.20
2017-05-21T18:32:15.151Z,46.70
2017-05-21T18:34:43.359Z,47.00
2017-05-21T18:37:11.584Z,47.30
2017-05-21T18:39:39.799Z,47.60
2017-05-21T18:42:08.018Z,48.20
2017-05-21T18:44:36.233Z,48.20
2017-05-21T18:47:04.630Z,48.20
2017-05-21T18:49:32.872Z,48.10
2017-05-21T18:52:01.093Z,48.30
2017-05-21T18:54:29.320Z,48.40
2017-05-21T18:56:57.540Z,48.60
2017-05-21T18:59:25.758Z,48.50
2017-05-21T19:01:54.007Z,49.40
2017-05-21T19:04:22.232Z,49.10
2017-05-21T19:06:50.456Z,48.80
2017-05-21T19:09:18.679Z,55.80
2017-05-21T19:11:46.892Z,57.60
2017-05-21T19:14:15.116Z,60.00
2017-05-21T19:16:43.349Z,60.40
2017-05-21T19:19:11.571Z,62.00
2017-05-21T19:21:39.791Z,63.80
2017-05-21T19:24:08.014Z,64.50
2017-05-21T19:26:36.285Z,63.30
2017-05-21T19:29:04.524Z,63.50
2017-05-21T19:31:32.747Z,63.30
2017-05-21T19:34:01.015Z,64.10
2017-05-21T19:36:29.227Z,65.30
2017-05-21T19:38:57.459Z,66.60
2017-05-21T19:41:25.679Z,67.70
2017-05-21T19:43:53.907Z,68.90
2017-05-21T19:46:22.135Z,69.10
2017-05-21T19:48:50.454Z,68.60
2017-05-21T19:51:18.671Z,68.40
2017-05-21T19:53:47.345Z,69.30
2017-05-21T19:56:15.668Z,69.10
2017-05-21T19:58:43.896Z,69.10
2017-05-21T20:01:12.116Z,68.30
2017-05-21T20:03:40.336Z,68.60
2017-05-21T20:06:08.571Z,69.40
2017-05-21T20:08:36.797Z,69.90
2017-05-21T20:11:05.011Z,71.20
2017-05-21T20:13:33.241Z,72.70
2017-05-21T20:16:01.686Z,73.60
2017-05-21T20:18:30.194Z,74.30
2017-05-21T20:20:58.441Z,74.20
2017-05-21T20:23:26.722Z,73.80
2017-05-21T20:25:54.930Z,73.40
2017-05-21T20:28:23.164Z,73.20
2017-05-21T20:30:51.381Z,72.60
2017-05-21T20:33:19.607Z,73.00
2017-05-21T20:35:47.827Z,73.20
2017-05-21T20:38:16.073Z,72.30
2017-05-21T20:40:44.287Z,72.90
2017-05-21T20:43:12.505Z,73.80
2017-05-21T20:45:40.723Z,74.40
2017-05-21T20:48:08.948Z,74.80
2017-05-21T20:50:37.712Z,74.40
2017-05-21T20:53:05.960Z,74.90
2017-05-21T20:55:34.188Z,75.30
2017-05-21T20:58:02.420Z,75.10
2017-05-21T21:00:30.648Z,75.70
2017-05-21T21:02:58.871Z,76.00
2017-05-21T21:05:27.112Z,74.90
2017-05-21T21:07:55.334Z,75.50
2017-05-21T21:10:23.574Z,75.30
2017-05-21T21:12:52.073Z,75.20
2017-05-21T21:15:20.292Z,75.20
2017-05-21T21:17:48.520Z,75.50
2017-05-21T21:20:16.739Z,75.30
2017-05-21T21:22:44.955Z,75.10
2017-05-21T21:25:13.172Z,75.20
2017-05-21T21:27:41.395Z,74.90
2017-05-21T21:30:09.612Z,74.80
2017-05-21T21:32:37.834Z,75.20
2017-05-21T21:35:06.054Z,75.40
2017-05-21T21:37:34.991Z,76.00
2017-05-21T21:40:03.216Z,76.00
2017-05-21T21:42:31.957Z,76.00
2017-05-21T21:45:00.186Z,77.20
2017-05-21T21:47:28.425Z,76.80
2017-05-21T21:49:56.655Z,76.90
2017-05-21T21:52:24.875Z,76.70
2017-05-21T21:54:53.105Z,76.40
2017-05-21T21:57:21.320Z,70.60
2017-05-21T21:59:49.543Z,67.30
2017-05-21T22:02:17.759Z,65.30
2017-05-21T22:04:45.988Z,64.90
2017-05-21T22:07:14.203Z,63.80
2017-05-21T22:09:42.427Z,63.70
2017-05-21T22:12:11.559Z,63.20
2017-05-21T22:14:39.804Z,62.70
2017-05-21T22:17:08.015Z,61.90
2017-05-21T22:19:36.243Z,61.60
2017-05-21T22:22:04.468Z,60.90
2017-05-21T22:24:32.691Z,60.90
2017-05-21T22:27:00.914Z,60.50
2017-05-21T22:29:29.136Z,60.50
2017-05-21T22:31:57.355Z,60.30
2017-05-21T22:34:25.572Z,60.50
2017-05-21T22:36:53.790Z,60.70
2017-05-21T22:39:22.021Z,61.80
2017-05-21T22:41:50.243Z,61.40
2017-05-21T22:44:18.512Z,61.40
2017-05-21T22:46:46.740Z,64.00
2017-05-21T22:49:14.964Z,64.10
2017-05-21T22:51:43.231Z,63.10
2017-05-21T22:54:11.460Z,65.80
2017-05-21T22:56:39.671Z,67.10
2017-05-21T22:59:07.896Z,67.80
2017-05-21T23:01:36.119Z,66.30
2017-05-21T23:04:04.355Z,67.00
2017-05-21T23:06:32.575Z,68.40
2017-05-21T23:09:00.811Z,68.90
2017-05-21T23:11:29.034Z,69.70
2017-05-21T23:13:57.271Z,70.30
2017-05-21T23:16:25.484Z,70.40
2017-05-21T23:18:53.708Z,70.70
2017-05-21T23:21:21.931Z,69.00
2017-05-21T23:23:50.184Z,67.40
2017-05-21T23:26:18.395Z,68.60
2017-05-21T23:28:46.615Z,69.10
2017-05-21T23:31:14.835Z,67.80
2017-05-21T23:33:43.051Z,67.90
2017-05-21T23:36:11.288Z,68.30
2017-05-21T23:38:39.506Z,68.50
2017-05-21T23:41:07.727Z,69.60
2017-05-21T23:43:35.952Z,68.10
2017-05-21T23:46:04.175Z,69.10
2017-05-21T23:48:32.404Z,68.90
2017-05-21T23:51:00.643Z,69.60
2017-05-21T23:53:28.868Z,70.10
2017-05-21T23:55:57.087Z,71.10
2017-05-21T23:58:25.316Z,72.30
